Terminal Aerodrome Forecast
Issued by NWS Louisville, KY

Home | Current Version | Previous Version | Text Only | Print | Product List | Glossary On
Versions: 1 2 3 4 5 6 7 8 9 10 11 12 13 14 15 16 17 18 19 20 21 22 23 24
468
FTUS43 KLMK 181740
TAFSDF
TAF
KSDF 181740Z 1818/1924 11006KT P6SM FEW250
     FM190300 14004KT P6SM BKN250 WS020/19035KT
     FM190600 17005KT P6SM -SHRA OVC035 WS020/22040KT
     FM190800 18006KT P6SM -SHRA OVC015 WS020/22042KT
     FM191600 20011G24KT P6SM OVC015
     FM191900 20013G24KT P6SM OVC045=

USA.gov is the U.S. government's official web portal to all federal, state and local government web resources and services.